Time;durP1;ratioP1;P1;durP2;ratioP2;P2;SDS_P1;SDS_P2;PMS_P1;PMS_P2;Temp;Humidity;BMP_temperature;BMP_pressure;BME280_temperature;BME280_humidity;BME280_pressure;Samples;Min_cycle;Max_cycle;Signal;HPM_P1;HPM_P2
2022/06/21 00:00:23;;;;;;;18.27;3.30;;;;;;;12.07;100.00;101277.72;4963176;28;20085;-83
2022/06/21 00:02:51;;;;;;;9.77;2.80;;;;;;;12.10;100.00;101282.75;4956235;28;20093;-81
2022/06/21 00:05:38;;;;;;;11.48;2.63;;;;;;;12.14;100.00;101285.94;4977358;28;21719;-81
2022/06/21 00:08:06;;;;;;;8.48;2.63;;;;;;;12.18;100.00;101284.59;4962341;28;20489;-81
2022/06/21 00:10:34;;;;;;;10.30;2.45;;;;;;;12.17;100.00;101280.22;4983105;28;20055;-80
2022/06/21 00:13:07;;;;;;;11.13;2.90;;;;;;;12.21;100.00;101280.72;4964986;28;20590;-81
2022/06/21 00:15:33;;;;;;;8.07;2.72;;;;;;;12.17;100.00;101268.56;4971281;28;20129;-80
2022/06/21 00:17:59;;;;;;;7.63;2.45;;;;;;;12.25;100.00;101269.41;4952344;28;20308;-81
2022/06/21 00:20:25;;;;;;;11.02;2.83;;;;;;;12.15;100.00;101249.06;4979089;28;20638;-81
2022/06/21 00:22:51;;;;;;;11.10;2.78;;;;;;;12.21;100.00;101243.78;4967753;28;20036;-83
2022/06/21 00:25:21;;;;;;;9.75;2.72;;;;;;;12.25;100.00;101257.75;4971251;28;20065;-81
2022/06/21 00:27:47;;;;;;;8.35;2.40;;;;;;;12.23;100.00;101249.88;4985894;28;20034;-80
2022/06/21 00:30:14;;;;;;;5.97;1.80;;;;;;;12.29;100.00;101257.25;4985429;28;20100;-82
2022/06/21 00:32:40;;;;;;;3.67;1.60;;;;;;;12.38;100.00;101257.19;4983412;28;20551;-81
2022/06/21 00:35:11;;;;;;;4.38;1.50;;;;;;;12.43;100.00;101244.88;4988138;28;20061;-81
2022/06/21 00:37:37;;;;;;;2.00;1.00;;;;;;;12.46;100.00;101235.59;4969660;28;20053;-81
2022/06/21 00:40:20;;;;;;;3.53;1.08;;;;;;;12.46;100.00;101227.50;4975071;28;20048;-81
2022/06/21 00:42:48;;;;;;;4.00;0.98;;;;;;;12.45;100.00;101226.66;5001911;28;20069;-82
2022/06/21 00:45:23;;;;;;;3.15;0.93;;;;;;;12.47;100.00;101227.34;4987906;28;20049;-82
2022/06/21 00:47:52;;;;;;;1.73;1.00;;;;;;;12.49;100.00;101217.22;5001446;28;20056;-81
2022/06/21 00:50:33;;;;;;;2.50;0.98;;;;;;;12.50;100.00;101226.97;4991634;28;20038;-82
2022/06/21 00:53:20;;;;;;;1.20;0.77;;;;;;;12.50;100.00;101221.56;4972278;28;20070;-81
2022/06/21 00:55:55;;;;;;;1.52;0.90;;;;;;;12.43;100.00;101198.19;4988429;28;20030;-81
2022/06/21 00:58:23;;;;;;;3.60;1.48;;;;;;;12.49;100.00;101208.25;4973242;28;20049;-81
2022/06/21 01:00:53;;;;;;;4.38;1.65;;;;;;;12.31;100.00;101174.31;4970273;28;20126;-81
2022/06/21 01:03:23;;;;;;;4.13;2.10;;;;;;;12.48;100.00;101196.63;4968300;28;20026;-81
2022/06/21 01:05:51;;;;;;;8.13;2.08;;;;;;;12.48;100.00;101195.81;4970352;28;20034;-81
2022/06/21 01:08:22;;;;;;;5.13;1.80;;;;;;;12.48;100.00;101199.34;4969257;28;20041;-83
2022/06/21 01:10:52;;;;;;;6.05;1.85;;;;;;;12.40;100.00;101179.66;4952583;28;20132;-80
2022/06/21 01:13:21;;;;;;;3.75;1.80;;;;;;;12.48;100.00;101191.25;4989277;28;20177;-81
2022/06/21 01:15:50;;;;;;;4.10;1.30;;;;;;;12.51;100.00;101190.03;4973605;28;20045;-82
2022/06/21 01:18:18;;;;;;;5.60;1.33;;;;;;;12.47;100.00;101184.19;4964713;28;20037;-81
2022/06/21 01:20:48;;;;;;;3.00;1.50;;;;;;;12.41;100.00;101162.47;4986469;28;20030;-82
2022/06/21 01:23:20;;;;;;;2.72;1.35;;;;;;;12.46;100.00;101168.16;4988160;28;20034;-82
2022/06/21 01:25:59;;;;;;;8.73;1.67;;;;;;;12.51;100.00;101179.25;4965457;28;20030;-82
2022/06/21 01:28:25;;;;;;;7.00;1.73;;;;;;;12.42;100.00;101165.00;4992336;28;20039;-81
2022/06/21 01:30:52;;;;;;;3.45;1.50;;;;;;;12.52;100.00;101181.78;4970197;28;20403;-82
2022/06/21 01:33:28;;;;;;;109.03;65.53;;;;;;;12.51;100.00;101177.41;4985766;28;20047;-82
2022/06/21 01:35:56;;;;;;;83.55;8.20;;;;;;;12.46;100.00;101174.41;4972782;28;20045;-81
2022/06/21 01:38:28;;;;;;;4.88;1.48;;;;;;;12.44;100.00;101154.88;4968253;28;20038;-81
2022/06/21 01:41:01;;;;;;;4.50;1.20;;;;;;;12.51;100.00;101173.88;4968826;28;20042;-81
2022/06/21 01:43:28;;;;;;;5.75;1.50;;;;;;;12.51;100.00;101173.88;4973640;28;20092;-82
2022/06/21 01:45:57;;;;;;;3.13;1.23;;;;;;;12.50;100.00;101167.63;4971790;28;20503;-80
2022/06/21 01:48:33;;;;;;;2.83;1.38;;;;;;;12.51;100.00;101163.06;4963708;28;20034;-81
2022/06/21 01:51:03;;;;;;;4.05;1.50;;;;;;;12.49;100.00;101163.28;4951601;28;20038;-81
2022/06/21 01:53:29;;;;;;;3.63;1.65;;;;;;;12.52;100.00;101162.91;4972323;28;20042;-81
2022/06/21 01:56:01;;;;;;;3.50;1.20;;;;;;;12.55;100.00;101148.22;4972134;28;20125;-81
2022/06/21 01:58:31;;;;;;;1.90;1.00;;;;;;;12.56;100.00;101157.97;4996488;28;20039;-81
2022/06/21 02:01:05;;;;;;;3.28;1.00;;;;;;;12.56;100.00;101166.06;4951733;28;20034;-81
2022/06/21 02:03:31;;;;;;;;;;;;;;;12.55;100.00;101153.63;4954157;28;20093;-81
2022/06/21 02:06:00;;;;;;;1.70;0.90;;;;;;;12.40;100.00;101129.25;4965570;28;19922;-82
2022/06/21 02:08:35;;;;;;;1.80;0.90;;;;;;;12.54;100.00;101138.44;4947965;28;20047;-82
2022/06/21 02:11:05;;;;;;;1.75;0.90;;;;;;;12.52;100.00;101144.03;4954519;28;20042;-82
2022/06/21 02:13:34;;;;;;;1.70;0.82;;;;;;;12.50;100.00;101145.22;4978019;28;20030;-82
2022/06/21 02:16:04;;;;;;;1.35;0.80;;;;;;;12.45;100.00;101144.91;4979601;28;20144;-82
2022/06/21 02:18:31;;;;;;;1.63;0.60;;;;;;;12.39;100.00;101126.75;4970101;28;20048;-82
2022/06/21 02:21:04;;;;;;;0.73;0.60;;;;;;;12.35;100.00;101130.81;4983819;28;20034;-82
2022/06/21 02:23:29;;;;;;;1.15;0.70;;;;;;;12.26;100.00;101132.72;4947640;28;20072;-83
2022/06/21 02:25:58;;;;;;;1.02;0.60;;;;;;;12.14;100.00;101120.66;4965128;28;20421;-82
2022/06/21 02:28:28;;;;;;;1.10;0.50;;;;;;;12.07;100.00;101125.94;4985819;28;20064;-82
2022/06/21 02:30:55;;;;;;;1.27;0.52;;;;;;;11.95;100.00;101111.16;4977379;28;20262;-83
2022/06/21 02:33:23;;;;;;;0.35;0.32;;;;;;;11.75;100.00;101102.63;4985826;28;20069;-83
2022/06/21 02:35:52;;;;;;;0.98;0.38;;;;;;;11.64;100.00;101118.19;4969489;28;20047;-83
2022/06/21 02:38:23;;;;;;;0.80;0.50;;;;;;;11.63;100.00;101108.41;4952791;28;20551;-83
2022/06/21 02:40:53;;;;;;;0.75;0.50;;;;;;;11.64;100.00;101112.78;4970481;28;20101;-82
2022/06/21 02:43:29;;;;;;;0.60;0.50;;;;;;;11.67;100.00;101111.59;4970566;28;20038;-81
2022/06/21 02:46:02;;;;;;;2.70;0.82;;;;;;;11.76;100.00;101109.72;4985094;28;20132;-83
2022/06/21 02:48:31;;;;;;;1.27;0.77;;;;;;;11.80;100.00;101108.34;4983891;28;20040;-81
2022/06/21 02:51:01;;;;;;;0.85;0.80;;;;;;;11.78;100.00;101097.75;4981181;28;20054;-83
2022/06/21 02:53:34;;;;;;;2.33;0.70;;;;;;;11.82;100.00;101098.22;4966165;28;20062;-83
2022/06/21 02:56:09;;;;;;;0.88;0.63;;;;;;;11.80;100.00;101092.16;4951362;28;20041;-82
2022/06/21 02:58:38;;;;;;;1.60;0.85;;;;;;;11.81;100.00;101105.47;4967670;28;20046;-82
2022/06/21 03:01:15;;;;;;;2.85;1.30;;;;;;;11.75;100.00;101081.94;4983478;28;20038;-82
2022/06/21 03:03:40;;;;;;;2.70;1.40;;;;;;;11.64;100.00;101064.31;4988191;28;20034;-83
2022/06/21 03:06:09;;;;;;;3.30;1.40;;;;;;;11.69;100.00;101073.72;4988552;28;20042;-83
2022/06/21 03:08:47;;;;;;;2.08;1.17;;;;;;;11.69;100.00;101082.63;4985467;28;20100;-83
2022/06/21 03:11:12;;;;;;;2.38;1.40;;;;;;;11.60;100.00;101081.00;4970663;28;20041;-81
2022/06/21 03:13:38;;;;;;;3.95;1.30;;;;;;;11.58;100.00;101080.31;4985899;28;20034;-82
2022/06/21 03:16:12;;;;;;;3.03;1.20;;;;;;;11.58;100.00;101080.31;4971923;28;20038;-83
2022/06/21 03:18:41;;;;;;;2.33;1.20;;;;;;;11.45;100.00;101057.47;4969021;28;20526;-83
2022/06/21 03:21:11;;;;;;;3.00;1.35;;;;;;;11.58;100.00;101074.94;4967819;28;20100;-82
2022/06/21 03:23:37;;;;;;;1.60;1.00;;;;;;;11.57;100.00;101057.94;4981970;28;20132;-84
2022/06/21 03:26:03;;;;;;;3.90;1.20;;;;;;;11.63;100.00;101059.09;4948034;28;20036;-83
2022/06/21 03:28:36;;;;;;;4.90;1.52;;;;;;;11.61;100.00;101055.72;5001410;28;20391;-82
2022/06/21 03:31:25;;;;;;;4.55;1.50;;;;;;;11.59;100.00;101060.44;4980651;28;20468;-83
2022/06/21 03:33:54;;;;;;;3.78;1.30;;;;;;;11.60;100.00;101064.84;4962474;28;20468;-83
2022/06/21 03:36:23;;;;;;;4.55;1.48;;;;;;;11.60;100.00;101051.38;4959335;28;20035;-82
2022/06/21 03:38:54;;;;;;;4.47;1.30;;;;;;;11.56;100.00;101039.25;4984008;28;20036;-84
2022/06/21 03:44:23;;;;;;;4.65;1.60;;;;;;;11.65;100.00;101046.28;4984983;28;20225;-83
2022/06/21 03:47:09;;;;;;;3.20;1.83;;;;;;;11.58;100.00;101038.06;4950491;28;20105;-84
2022/06/21 03:49:59;;;;;;;4.00;1.50;;;;;;;11.61;100.00;101053.88;4982191;28;20064;-82
2022/06/21 03:52:44;;;;;;;3.55;1.23;;;;;;;11.66;100.00;101050.66;4962437;28;20093;-83
2022/06/21 03:55:22;;;;;;;5.55;1.50;;;;;;;11.67;100.00;101044.28;4969811;28;20419;-83
2022/06/21 03:57:55;;;;;;;5.25;1.55;;;;;;;11.65;100.00;101038.22;4969831;28;20038;-83
2022/06/21 04:00:21;;;;;;;4.45;1.23;;;;;;;11.66;100.00;101032.63;4983942;28;20534;-84
2022/06/21 04:02:55;;;;;;;3.63;1.23;;;;;;;11.65;100.00;101025.56;4986146;28;20027;-82
2022/06/21 04:05:24;;;;;;;2.55;1.30;;;;;;;11.63;100.00;101024.91;4971066;28;20034;-84
2022/06/21 04:08:01;;;;;;;4.50;1.52;;;;;;;11.63;100.00;101024.91;4985094;28;20077;-82
2022/06/21 04:10:47;;;;;;;2.75;1.20;;;;;;;11.53;100.00;101021.59;4971309;28;20127;-83
2022/06/21 04:13:32;;;;;;;1.55;0.90;;;;;;;11.53;100.00;101020.75;4968518;28;20563;-82
2022/06/21 04:16:10;;;;;;;2.88;1.15;;;;;;;11.57;100.00;101020.22;4971562;28;20049;-83
2022/06/21 04:18:49;;;;;;;4.15;1.88;;;;;;;11.61;100.00;101029.63;4972634;28;20176;-85
2022/06/21 04:21:57;;;;;;;1.77;1.13;;;;;;;11.56;100.00;101018.53;4982632;28;20030;-82
2022/06/21 04:24:34;;;;;;;5.80;1.35;;;;;;;11.71;100.00;101042.88;4988261;28;20530;-84
2022/06/21 04:27:19;;;;;;;3.08;1.20;;;;;;;11.72;100.00;101043.72;4978097;28;20042;-83
2022/06/21 04:29:54;;;;;;;2.85;1.23;;;;;;;11.66;100.00;101023.72;4969704;28;20053;-83
2022/06/21 04:32:42;;;;;;;3.13;1.02;;;;;;;11.68;100.00;101032.47;4969924;28;20480;-82
2022/06/21 04:35:14;;;;;;;5.70;1.42;;;;;;;11.72;100.00;101028.38;4988349;28;20050;-85
2022/06/21 04:37:48;;;;;;;2.50;1.23;;;;;;;11.61;100.00;101013.47;4978551;28;20057;-83
2022/06/21 04:40:24;;;;;;;3.45;1.30;;;;;;;11.74;100.00;101029.06;4966132;28;20039;-82
2022/06/21 04:42:59;;;;;;;2.38;1.30;;;;;;;11.75;100.00;101035.28;4957250;28;20050;-83
2022/06/21 04:45:44;;;;;;;1.98;1.10;;;;;;;11.74;100.00;101030.91;4958321;28;20049;-82
2022/06/21 04:48:21;;;;;;;1.90;1.10;;;;;;;11.75;100.00;101029.88;4983267;28;20070;-83
2022/06/21 04:50:56;;;;;;;2.45;1.25;;;;;;;11.74;100.00;101026.38;4968718;28;20053;-83
2022/06/21 04:53:29;;;;;;;3.10;1.17;;;;;;;11.68;100.00;101020.84;4958169;28;20035;-83
2022/06/21 04:56:13;;;;;;;5.43;1.60;;;;;;;11.76;100.00;101039.66;4968217;28;20068;-83
2022/06/21 04:58:39;;;;;;;4.60;1.38;;;;;;;11.74;100.00;101036.31;4971231;28;20055;-84
2022/06/21 05:01:29;;;;;;;2.97;1.80;;;;;;;11.75;100.00;101016.41;4970427;28;20315;-84
2022/06/21 05:03:51;;;;;;;4.95;1.30;;;;;;;11.79;100.00;101031.22;4982611;28;20030;-84
2022/06/21 05:06:17;;;;;;;6.18;1.80;;;;;;;11.77;100.00;101026.00;5002546;28;20065;-84
2022/06/21 05:08:43;;;;;;;5.47;1.92;;;;;;;11.86;100.00;101026.84;4971830;28;20077;-82
2022/06/21 05:11:11;;;;;;;6.53;2.15;;;;;;;11.90;100.00;101028.16;4983512;28;20062;-83
2022/06/21 05:13:40;;;;;;;3.90;1.70;;;;;;;11.94;100.00;101020.56;4954609;28;20073;-84
2022/06/21 05:16:16;;;;;;;3.75;1.67;;;;;;;11.97;100.00;101025.59;4991031;28;20050;-83
2022/06/21 05:18:56;;;;;;;4.35;2.70;;;;;;;11.99;100.00;101023.56;4967723;28;20185;-83
2022/06/21 05:21:30;;;;;;;9.73;2.72;;;;;;;11.97;100.00;101025.59;4985085;28;20488;-84
2022/06/21 05:23:56;;;;;;;4.90;1.90;;;;;;;11.88;100.00;101012.19;4954686;28;20104;-86
2022/06/21 05:26:33;;;;;;;8.63;2.10;;;;;;;12.00;100.00;101026.06;4958664;28;20042;-85
2022/06/21 05:29:08;;;;;;;5.95;2.42;;;;;;;11.99;100.00;101020.88;4971229;28;20088;-83
2022/06/21 05:31:41;;;;;;;5.20;1.67;;;;;;;12.01;100.00;101005.34;4985825;28;20070;-84
2022/06/21 05:34:14;;;;;;;4.13;2.00;;;;;;;12.01;100.00;101008.91;4987050;28;20026;-85
2022/06/21 05:36:47;;;;;;;5.15;1.65;;;;;;;12.05;100.00;101014.75;4982916;28;20503;-83
2022/06/21 05:39:20;;;;;;;5.13;1.67;;;;;;;12.07;100.00;101010.03;4992496;28;20035;-85
2022/06/21 05:41:46;;;;;;;;;;;;;;;12.16;100.00;101013.50;4978790;28;20034;-83
2022/06/21 05:44:23;;;;;;;4.53;1.88;;;;;;;12.19;100.00;101015.84;4966021;28;19921;-83
2022/06/21 05:46:54;;;;;;;4.78;2.10;;;;;;;12.17;100.00;101009.78;4971593;28;20085;-84
2022/06/21 05:49:22;;;;;;;4.88;1.90;;;;;;;12.21;100.00;101017.34;4987895;28;20052;-82
2022/06/21 05:51:49;;;;;;;7.15;1.60;;;;;;;12.29;100.00;101014.56;4984911;28;20054;-83
2022/06/21 05:54:17;;;;;;;5.47;2.08;;;;;;;12.37;100.00;101016.38;4973259;28;20069;-85
2022/06/21 05:56:43;;;;;;;3.40;1.83;;;;;;;12.42;100.00;101029.31;4969379;28;20049;-83
2022/06/21 05:59:20;;;;;;;6.78;1.80;;;;;;;12.51;100.00;101025.50;4984445;28;20045;-82
2022/06/21 06:02:08;;;;;;;6.32;1.58;;;;;;;12.55;100.00;101032.25;4962927;28;20030;-84
2022/06/21 06:04:48;;;;;;;3.50;1.70;;;;;;;12.61;100.00;101026.09;4966288;28;20034;-86
2022/06/21 06:07:44;;;;;;;3.65;1.65;;;;;;;12.75;100.00;101024.44;4967325;28;20034;-83
2022/06/21 06:10:11;;;;;;;2.75;1.30;;;;;;;12.86;100.00;101015.94;4945556;28;20050;-86
2022/06/21 06:12:40;;;;;;;5.03;1.98;;;;;;;12.97;100.00;101017.31;4963581;28;20049;-83
2022/06/21 06:15:08;;;;;;;3.83;1.80;;;;;;;13.13;100.00;101022.53;4962544;28;20037;-83
2022/06/21 06:18:09;;;;;;;3.08;1.65;;;;;;;13.25;100.00;101022.06;4973251;28;20121;-83
2022/06/21 06:20:43;;;;;;;5.25;1.80;;;;;;;13.22;100.00;101006.25;4963715;28;20096;-83
2022/06/21 06:23:41;;;;;;;3.53;1.77;;;;;;;13.18;100.00;101014.72;4971146;28;20041;-82
2022/06/21 06:26:28;;;;;;;3.15;1.60;;;;;;;13.12;100.00;101014.63;4978883;28;20065;-84
2022/06/21 06:29:00;;;;;;;5.57;1.73;;;;;;;13.14;100.00;101015.28;4981763;28;20117;-83
2022/06/21 06:31:32;;;;;;;3.08;1.33;;;;;;;13.11;100.00;101013.78;4986383;28;20125;-83
2022/06/21 06:34:07;;;;;;;6.97;2.00;;;;;;;13.25;100.00;101001.28;4967807;28;20117;-83
2022/06/21 06:36:40;;;;;;;3.88;1.60;;;;;;;13.32;100.00;101002.25;4968522;28;20077;-83
2022/06/21 06:39:27;;;;;;;3.15;1.65;;;;;;;13.58;100.00;100992.81;4987762;28;20042;-83
2022/06/21 06:42:02;;;;;;;4.82;1.50;;;;;;;13.67;100.00;100958.41;4976891;28;20026;-85
2022/06/21 06:44:32;;;;;;;3.08;1.40;;;;;;;14.08;100.00;100991.91;4970803;28;20042;-84
2022/06/21 06:47:01;;;;;;;2.70;1.35;;;;;;;14.28;100.00;100991.25;4954365;28;20042;-84
2022/06/21 06:49:32;;;;;;;2.28;1.38;;;;;;;14.31;100.00;100988.16;4976035;28;20042;-82
2022/06/21 06:52:34;;;;;;;3.70;1.30;;;;;;;14.29;100.00;100996.47;4963595;28;20052;-84
2022/06/21 06:55:16;;;;;;;3.25;1.25;;;;;;;14.40;100.00;100991.56;4959853;28;20042;-83
2022/06/21 06:57:47;;;;;;;2.30;1.45;;;;;;;14.41;100.00;100991.34;4958224;28;20042;-84
2022/06/21 07:00:18;;;;;;;2.50;1.13;;;;;;;14.43;100.00;100980.34;4963443;28;20042;-84
2022/06/21 07:03:15;;;;;;;2.28;0.90;;;;;;;14.55;100.00;100984.22;4952302;28;20383;-84
2022/06/21 07:05:43;;;;;;;2.20;0.90;;;;;;;14.54;100.00;100987.13;4952158;28;20046;-82
2022/06/21 07:08:37;;;;;;;1.73;0.90;;;;;;;14.59;100.00;100987.38;4962990;28;20034;-83
2022/06/21 07:11:12;;;;;;;2.00;0.98;;;;;;;14.72;100.00;100985.59;4979841;28;20400;-83
2022/06/21 07:13:38;;;;;;;1.70;1.02;;;;;;;14.85;100.00;100987.56;4979036;28;20688;-83
2022/06/21 07:16:08;;;;;;;1.98;1.20;;;;;;;14.79;100.00;100980.25;4983149;28;20042;-84
2022/06/21 07:18:41;;;;;;;1.23;0.80;;;;;;;14.93;100.00;100979.28;4953405;28;20370;-84
2022/06/21 07:21:07;;;;;;;1.42;1.00;;;;;;;15.23;100.00;100978.19;4981643;28;20538;-82
2022/06/21 07:23:33;;;;;;;2.28;0.88;;;;;;;15.31;100.00;100978.03;4982302;28;20034;-83
2022/06/21 07:26:06;;;;;;;1.20;0.80;;;;;;;15.24;100.00;100979.84;4967838;28;20463;-82
2022/06/21 07:28:57;;;;;;;1.60;1.00;;;;;;;15.39;100.00;100980.56;4967208;28;20279;-84
2022/06/21 07:31:31;;;;;;;1.73;1.02;;;;;;;15.40;100.00;100976.81;4982238;28;20038;-83
2022/06/21 07:34:00;;;;;;;;;;;;;;;15.63;100.00;100976.47;4962428;28;20026;-81
2022/06/21 07:36:49;;;;;;;3.58;1.08;;;;;;;16.02;100.00;100974.94;4956732;28;20023;-82
2022/06/21 07:39:21;;;;;;;1.55;1.00;;;;;;;16.19;100.00;100968.03;4971088;28;20074;-83
2022/06/21 07:41:56;;;;;;;3.33;1.00;;;;;;;16.24;100.00;100968.25;4992091;28;20039;-83
2022/06/21 07:44:41;;;;;;;2.65;1.55;;;;;;;16.13;100.00;100968.06;4956690;28;20046;-82
2022/06/21 07:47:12;;;;;;;0.98;0.75;;;;;;;16.04;100.00;100978.28;4993507;28;20038;-83
2022/06/21 07:49:40;;;;;;;1.30;1.00;;;;;;;15.90;100.00;100966.53;4965783;28;20104;-84
2022/06/21 07:52:20;;;;;;;1.58;0.98;;;;;;;15.69;100.00;100945.88;4964653;28;20438;-82
2022/06/21 07:54:52;;;;;;;1.02;0.80;;;;;;;15.71;100.00;100976.31;4985410;28;20089;-82
2022/06/21 07:57:32;;;;;;;1.92;0.75;;;;;;;15.49;100.00;100974.75;4985723;28;20434;-83
2022/06/21 08:00:06;;;;;;;0.85;0.77;;;;;;;15.41;100.00;100973.06;4970635;28;20034;-82
2022/06/21 08:08:29;;;;;;;1.10;0.90;;;;;;;15.70;100.00;100974.66;4985358;28;20034;-82
2022/06/21 08:11:16;;;;;;;1.75;1.20;;;;;;;15.87;100.00;100972.38;4956548;28;20105;-82
2022/06/21 08:13:42;;;;;;;1.23;0.93;;;;;;;15.99;100.00;100957.19;4985796;28;20091;-82
2022/06/21 08:16:15;;;;;;;1.40;1.02;;;;;;;16.15;100.00;100957.84;4972124;28;20031;-81
2022/06/21 08:18:49;;;;;;;1.33;1.10;;;;;;;16.41;100.00;100973.28;4964344;28;20034;-84
2022/06/21 08:21:19;;;;;;;3.95;1.20;;;;;;;16.80;100.00;100971.59;5001495;28;20050;-83
2022/06/21 08:23:53;;;;;;;2.53;1.20;;;;;;;17.27;100.00;100962.25;4996815;28;20126;-83
2022/06/21 08:26:49;;;;;;;1.77;1.05;;;;;;;17.95;98.41;100959.03;4966839;28;20101;-82
2022/06/21 08:29:28;;;;;;;1.38;1.00;;;;;;;18.56;97.54;100959.38;4964595;28;20042;-82
2022/06/21 08:32:00;;;;;;;1.23;0.88;;;;;;;19.20;92.29;100963.53;4970179;28;20038;-81
2022/06/21 08:34:35;;;;;;;1.90;1.30;;;;;;;19.71;87.93;100967.75;4984402;28;20035;-81
2022/06/21 08:37:35;;;;;;;1.40;0.90;;;;;;;20.37;83.78;100959.59;4954989;28;20041;-82
2022/06/21 08:40:28;;;;;;;1.25;0.80;;;;;;;20.88;80.15;100968.16;4980342;28;20057;-81
2022/06/21 08:43:18;;;;;;;2.28;1.17;;;;;;;20.63;81.12;100964.63;4996470;28;20042;-81
2022/06/21 08:45:53;;;;;;;1.50;0.95;;;;;;;20.51;79.76;100965.66;4969129;28;20035;-82
2022/06/21 08:48:45;;;;;;;1.10;0.85;;;;;;;20.40;77.43;100956.38;4986215;28;20061;-82
2022/06/21 08:51:13;;;;;;;1.20;0.93;;;;;;;20.26;74.92;100954.94;4979274;28;20038;-81
2022/06/21 08:54:03;;;;;;;6.32;2.20;;;;;;;20.27;79.04;100948.41;4986998;28;20050;-81
2022/06/21 08:56:42;;;;;;;1.65;0.90;;;;;;;20.82;70.32;100953.56;4967209;28;20038;-81
2022/06/21 08:59:37;;;;;;;0.80;0.80;;;;;;;21.79;70.79;100946.53;4985001;28;20469;-82
2022/06/21 09:02:34;;;;;;;1.23;0.80;;;;;;;21.76;68.75;100939.66;4970196;28;20050;-82
2022/06/21 09:05:12;;;;;;;0.75;0.70;;;;;;;21.28;66.18;100930.78;4985502;28;20113;-80
2022/06/21 09:07:47;;;;;;;1.75;0.77;;;;;;;20.80;74.11;100944.78;4983237;28;20034;-84
2022/06/21 09:10:24;;;;;;;0.93;0.73;;;;;;;20.71;70.13;100943.47;4970073;28;20046;-85
2022/06/21 09:13:05;;;;;;;1.13;0.90;;;;;;;21.00;73.61;100945.22;4987039;28;20034;-84
2022/06/21 09:15:42;;;;;;;1.95;0.82;;;;;;;21.63;72.51;100934.47;4988231;28;20027;-84
2022/06/21 09:18:41;;;;;;;0.98;0.88;;;;;;;21.98;69.29;100936.19;4983586;28;20034;-87
2022/06/21 09:21:14;;;;;;;1.23;0.98;;;;;;;21.93;63.83;100942.41;4983363;28;20046;-84
2022/06/21 09:23:50;;;;;;;1.88;1.30;;;;;;;21.44;65.50;100939.31;4974264;28;20092;-84
2022/06/21 09:26:34;;;;;;;1.10;1.00;;;;;;;21.21;67.17;100942.94;4952956;28;20043;-86
2022/06/21 09:29:08;;;;;;;1.17;0.90;;;;;;;21.14;67.25;100932.09;4959715;28;20042;-84
2022/06/21 09:31:50;;;;;;;1.17;0.90;;;;;;;21.16;66.25;100940.91;4972234;28;20144;-84
2022/06/21 09:34:30;;;;;;;1.02;0.90;;;;;;;21.15;66.01;100942.00;4971454;28;20073;-85
2022/06/21 09:37:05;;;;;;;0.90;0.80;;;;;;;21.01;66.50;100932.38;4961545;28;20105;-86
2022/06/21 09:39:37;;;;;;;1.52;0.93;;;;;;;21.01;66.93;100943.31;4974292;28;20125;-83
2022/06/21 09:42:24;;;;;;;1.25;1.00;;;;;;;20.66;66.71;100940.63;4991029;28;20046;-85
2022/06/21 09:45:15;;;;;;;1.30;1.10;;;;;;;20.16;68.51;100926.34;4975018;28;20038;-84
2022/06/21 09:48:02;;;;;;;1.35;0.90;;;;;;;20.05;69.30;100938.06;4967472;28;20064;-85
2022/06/21 09:50:48;;;;;;;1.35;0.93;;;;;;;19.70;71.16;100927.88;4990007;28;20038;-83
2022/06/21 09:53:39;;;;;;;1.30;1.00;;;;;;;19.70;71.59;100949.69;4975768;28;20388;-84
2022/06/21 09:56:21;;;;;;;2.00;0.98;;;;;;;19.63;71.45;100953.56;4985149;28;20030;-84
2022/06/21 09:59:01;;;;;;;1.35;1.00;;;;;;;19.54;72.21;100951.16;4985069;28;20042;-84
2022/06/21 10:01:42;;;;;;;1.50;1.08;;;;;;;19.57;72.83;100949.03;4963973;28;20057;-81
2022/06/21 10:04:21;;;;;;;3.72;1.33;;;;;;;19.58;72.69;100954.22;4966533;28;20038;-82
2022/06/21 10:06:59;;;;;;;1.45;1.10;;;;;;;19.61;72.33;100955.66;4968001;28;20160;-82
2022/06/21 10:09:33;;;;;;;1.30;1.00;;;;;;;19.50;71.63;100954.56;4981240;28;20136;-81
2022/06/21 10:12:30;;;;;;;1.40;1.00;;;;;;;19.35;73.02;100956.88;4965130;28;20246;-81
2022/06/21 10:15:33;;;;;;;2.75;1.40;;;;;;;19.11;74.67;100957.56;4972771;28;20031;-80
2022/06/21 10:18:20;;;;;;;3.78;1.67;;;;;;;18.62;77.08;100961.19;4953416;28;20065;-81
2022/06/21 10:21:02;;;;;;;2.65;1.55;;;;;;;18.28;79.40;100957.94;5000005;28;20042;-81
2022/06/21 10:24:06;;;;;;;4.07;1.70;;;;;;;18.12;80.82;100956.59;4981478;28;20518;-83
2022/06/21 10:26:45;;;;;;;3.25;2.03;;;;;;;18.02;81.78;100950.81;4986580;28;20038;-80
2022/06/21 10:29:35;;;;;;;4.22;2.58;;;;;;;18.07;82.45;100955.59;4985873;28;20041;-83
2022/06/21 10:32:26;;;;;;;7.75;4.82;;;;;;;18.08;82.99;100957.28;4980057;28;20030;-79
2022/06/21 10:35:21;;;;;;;6.97;3.50;;;;;;;18.18;82.09;100968.50;4971794;28;20034;-81
2022/06/21 10:37:52;;;;;;;7.43;3.95;;;;;;;18.30;83.18;100950.38;4953091;28;20073;-81
2022/06/21 10:40:24;;;;;;;5.88;2.75;;;;;;;18.60;82.64;100957.84;4978689;28;20022;-81
2022/06/21 10:43:05;;;;;;;4.65;2.38;;;;;;;18.72;81.88;100961.53;4968158;28;20052;-81
2022/06/21 10:45:46;;;;;;;4.35;2.55;;;;;;;18.85;82.17;100966.88;4975587;28;20423;-81
2022/06/21 10:48:22;;;;;;;8.70;5.63;;;;;;;19.09;80.29;100964.31;4978167;28;20040;-80
2022/06/21 10:51:07;;;;;;;11.35;6.53;;;;;;;19.50;78.32;100963.59;4983355;28;20038;-80
2022/06/21 10:53:53;;;;;;;4.85;2.90;;;;;;;20.29;75.72;100962.66;4969599;28;20037;-82
2022/06/21 10:59:19;;;;;;;4.32;2.97;;;;;;;22.21;65.33;100955.25;4989989;28;20476;-82
2022/06/21 11:02:14;;;;;;;6.00;3.65;;;;;;;22.45;63.68;100966.06;4989394;28;20102;-84
2022/06/21 11:04:51;;;;;;;5.07;3.85;;;;;;;22.48;62.92;100957.31;4963788;28;20042;-80
2022/06/21 11:07:20;;;;;;;7.18;5.95;;;;;;;22.54;61.87;100961.78;4997522;28;20064;-81
2022/06/21 11:10:00;;;;;;;4.85;3.22;;;;;;;22.35;62.48;100955.75;4984993;28;20541;-84
2022/06/21 11:15:23;;;;;;;2.92;2.20;;;;;;;22.03;62.65;100958.19;4971187;28;20030;-81
2022/06/21 11:18:24;;;;;;;2.15;1.60;;;;;;;21.98;62.31;100958.94;4983238;28;20125;-82
2022/06/21 11:21:27;;;;;;;4.50;1.75;;;;;;;22.06;61.51;100960.44;4986465;28;20484;-81
2022/06/21 11:23:59;;;;;;;2.17;1.50;;;;;;;21.98;62.08;100964.41;4971466;28;20480;-81
2022/06/21 11:26:46;;;;;;;2.25;1.52;;;;;;;21.94;62.30;100958.59;4988915;28;20127;-81
2022/06/21 11:29:21;;;;;;;2.67;1.60;;;;;;;22.37;62.38;100965.38;4970991;28;20115;-83
2022/06/21 11:32:22;;;;;;;2.50;1.90;;;;;;;22.72;60.81;100967.00;4966436;28;20396;-80
2022/06/21 11:35:00;;;;;;;2.45;1.80;;;;;;;23.04;58.89;100969.94;4953729;28;20050;-82
2022/06/21 11:37:47;;;;;;;1.98;1.50;;;;;;;23.62;56.35;100962.16;4988171;28;20038;-82
2022/06/21 11:40:22;;;;;;;2.47;1.60;;;;;;;24.20;53.84;100961.66;4986668;28;20038;-83
2022/06/21 11:42:53;;;;;;;2.55;1.77;;;;;;;24.36;53.15;100960.69;4969162;28;20041;-82
2022/06/21 11:45:35;;;;;;;2.20;1.45;;;;;;;24.40;52.85;100950.84;4988111;28;20036;-81
2022/06/21 11:48:04;;;;;;;2.00;1.55;;;;;;;24.23;50.96;100934.47;4985240;28;20082;-80
2022/06/21 11:51:02;;;;;;;2.22;1.63;;;;;;;24.08;52.51;100954.41;4988475;28;20113;-80
2022/06/21 11:54:03;;;;;;;2.25;1.42;;;;;;;24.15;54.13;100962.44;4987769;28;20050;-81
2022/06/21 11:56:45;;;;;;;2.50;2.30;;;;;;;24.25;52.99;100957.03;4988781;28;22068;-81
2022/06/21 11:59:14;;;;;;;;;;;;;;;24.49;53.69;100974.00;4971290;28;20073;-82
2022/06/21 12:02:01;;;;;;;1.42;1.10;;;;;;;24.70;52.69;100960.41;4984297;28;19925;-82
2022/06/21 12:04:38;;;;;;;3.03;1.10;;;;;;;24.48;51.30;100971.53;4985341;28;20376;-84
2022/06/21 12:07:27;;;;;;;0.80;0.80;;;;;;;24.00;52.79;100976.88;4950231;28;20424;-80
2022/06/21 12:10:23;;;;;;;1.83;1.20;;;;;;;23.71;53.50;100970.78;4971509;28;20137;-83
2022/06/21 12:12:57;;;;;;;2.75;1.30;;;;;;;23.88;54.20;100970.69;4970559;28;20030;-80
2022/06/21 12:15:30;;;;;;;2.78;1.40;;;;;;;24.20;52.59;100976.22;4972113;28;20038;-79